1884 Depression NOT_NAMED (1884215N21088)


IBTrACS version v04r00. Visit IBTrACS website for data access.
Please direct all questions to the IBTrACS Q and A forum

Storm track - Intensity - Wind Radii - Intensity Data - Source Data - All data

Summary Information

Storm ID 1884215N21088
Start Aug 2 00Z
Landfall Aug 2 12Z
Max Intensity 30 kt (Aug 2 03Z)
End Aug 9 03Z
ATCF IDs
Track status Best track data.

Storm track plot

Map of storm track

Intensity plots

Map of storm track

Radial wind information

No radial wind information for this storm


Position and Intensity Table

BASIN ISO_TIME_________ NATURE LAT LON DS824 WIND
degrees north degrees east kts
NI 1884-08-02 00:00:00 TS 21.20 88.00 30
NI 03:00:00 TS 21.30 87.94 30
NI 06:00:00 TS 21.44 87.84 30
NI 09:00:00 TS 21.57 87.72 30
NI 12:00:00 TS 21.72 87.58 30
NI 15:00:00 TS 21.90 87.40 30
NI 18:00:00 TS 22.09 87.21 30
NI 21:00:00 TS 22.24 87.02 30
NI 1884-08-03 00:00:00 TS 22.35 86.87 30
NI 03:00:00 TS 22.41 86.79 30
NI 06:00:00 TS 22.42 86.77 30
NI 09:00:00 TS 22.42 86.77 30
NI 12:00:00 TS 22.41 86.79 30
NI 15:00:00 TS 22.40 86.80 30
NI 18:00:00 TS 22.38 86.84 30
NI 21:00:00 TS 22.35 86.91 30
NI 1884-08-04 00:00:00 TS 22.36 86.88 30
NI 03:00:00 TS 22.48 86.65 30
NI 06:00:00 TS 22.69 86.20 30
NI 09:00:00 TS 22.96 85.58 30
NI 12:00:00 TS 23.26 84.91 30
NI 15:00:00 TS 23.53 84.33 30
NI 18:00:00 TS 23.78 83.81 30
NI 21:00:00 TS 24.02 83.26 30
NI 1884-08-05 00:00:00 TS 24.21 82.80 30
NI 03:00:00 TS 24.33 82.50 30
NI 06:00:00 TS 24.41 82.32 30
NI 09:00:00 TS 24.49 82.16 30
NI 12:00:00 TS 24.57 82.04 30
NI 15:00:00 TS 24.65 81.95 30
NI 18:00:00 TS 24.75 81.84 30
NI 21:00:00 TS 24.86 81.74 30
NI 1884-08-06 00:00:00 TS 24.96 81.65 30
NI 03:00:00 TS 25.03 81.55 30
NI 06:00:00 TS 25.08 81.45 30
NI 09:00:00 TS 25.13 81.36 30
NI 12:00:00 TS 25.18 81.26 30
NI 15:00:00 TS 25.23 81.13 30
NI 18:00:00 TS 25.27 80.99 30
NI 21:00:00 TS 25.30 80.86 30
NI 1884-08-07 00:00:00 TS 25.36 80.70 30
NI 03:00:00 TS 25.47 80.46 30
NI 06:00:00 TS 25.61 80.17 30
NI 09:00:00 TS 25.76 79.90 30
NI 12:00:00 TS 25.91 79.64 30
NI 15:00:00 TS 26.07 79.40 30
NI 18:00:00 TS 26.23 79.18 30
NI 21:00:00 TS 26.41 78.96 30
NI 1884-08-08 00:00:00 TS 26.60 78.78 30
NI 03:00:00 TS 26.80 78.64 30
NI 06:00:00 TS 27.00 78.54 30
NI 09:00:00 TS 27.23 78.47 30
NI 12:00:00 TS 27.48 78.42 30
NI 15:00:00 TS 27.72 78.37 30
NI 18:00:00 TS 27.96 78.34 30
NI 21:00:00 TS 28.24 78.32 30
NI 1884-08-09 00:00:00 TS 28.51 78.31 30
NI 03:00:00 NR 28.70 78.30

Source Information

Agency Information
USA
TOKYO
CMA
HKO
NEWDELHI
REUNION
BOM
NADI
WELLINGTON
DS824 n_ind.dat:78:NOT NAMED
TD9636 cons_worldwide_trop_cyclone_18710101-19891231-004:Line=739
TD9635
NEUMANN
MLC

All available IBTrACS Data

SEASON BASIN SUBBASIN ISO_TIME_________ NATURE LAT LON DIST2LAND LANDFALL IFLAG USA SSHS DS824 LAT DS824 LON DS824 STAGE DS824 WIND TD9636 LAT TD9636 LON TD9636 STAGE STORM SPEED STORM DIR
Year degrees north degrees east km km 1 degrees north degrees east kts degrees north degrees east kts degrees
1884 NI BB 1884-08-02 00:00:00 TS 21.20 88.00 49 39 _________O____ -1 21.20 88.00 TC 30 2 329
1884 NI BB 03:00:00 TS 21.30 87.94 45 33 _________PO___ -1 21.35 87.91 TC 30 21.20 88.00 1 3 328
1884 NI BB 06:00:00 TS 21.44 87.84 33 11 _________OP___ -1 21.50 87.80 TC 30 21.34 87.90 1 3 323
1884 NI BB 09:00:00 TS 21.57 87.72 11 0 _________PP___ -1 21.64 87.66 TC 30 21.48 87.79 1 4 319
1884 NI BB 12:00:00 TS 21.72 87.58 0 0 _________OP___ -1 21.80 87.50 TC 30 21.64 87.66 1 4 318
1884 NI BB 15:00:00 TS 21.90 87.40 0 0 _________PO___ -1 22.01 87.30 TC 30 21.80 87.50 1 5 317
1884 NI BB 18:00:00 TS 22.09 87.21 0 0 _________OP___ -1 22.20 87.10 TC 30 21.97 87.31 1 5 313
1884 NI BB 21:00:00 TS 22.24 87.02 0 0 _________PP___ -1 22.33 86.92 TC 30 22.15 87.11 1 4 310
1884 NI BB 1884-08-03 00:00:00 TS 22.35 86.87 0 0 _________OP___ -1 22.40 86.80 TC 30 22.29 86.93 1 3 309
1884 NI BB 03:00:00 TS 22.41 86.79 0 0 _________PO___ -1 22.41 86.78 TC 30 22.40 86.80 1 1 309
1884 NI BB 06:00:00 TS 22.42 86.77 0 0 _________OP___ -1 22.40 86.80 TC 30 22.44 86.75 1 0 0
1884 NI BB 09:00:00 TS 22.42 86.77 0 0 _________PP___ -1 22.40 86.80 TC 30 22.44 86.75 1 0 0
1884 NI BB 12:00:00 TS 22.41 86.79 0 0 _________OP___ -1 22.40 86.80 TC 30 22.42 86.77 1 0 0
1884 NI BB 15:00:00 TS 22.40 86.80 0 0 _________PO___ -1 22.40 86.80 TC 30 22.40 86.80 1 1 119
1884 NI BB 18:00:00 TS 22.38 86.84 0 0 _________OP___ -1 22.40 86.80 TC 30 22.36 86.89 1 1 117
1884 NI BB 21:00:00 TS 22.35 86.91 0 0 _________PP___ -1 22.37 86.86 TC 30 22.32 86.96 1 0 114
1884 NI BB 1884-08-04 00:00:00 TS 22.36 86.88 0 0 _________OP___ -1 22.40 86.80 TC 30 22.33 86.96 1 3 298
1884 NI BB 03:00:00 TS 22.48 86.65 0 0 _________PO___ -1 22.55 86.50 TC 30 22.40 86.80 1 7 298
1884 NI BB 06:00:00 TS 22.69 86.20 0 0 _________OP___ -1 22.80 86.00 TC 30 22.58 86.40 1 11 296
1884 NI BB 09:00:00 TS 22.96 85.58 0 0 _________PP___ -1 23.09 85.32 TC 30 22.83 85.85 1 13 296
1884 NI BB 12:00:00 TS 23.26 84.91 0 0 _________OP___ -1 23.40 84.60 TC 30 23.12 85.23 1 13 296
1884 NI BB 15:00:00 TS 23.53 84.33 0 0 _________PO___ -1 23.66 84.07 TC 30 23.40 84.60 1 11 297
1884 NI BB 18:00:00 TS 23.78 83.81 0 0 _________OP___ -1 23.90 83.60 TC 30 23.66 84.03 1 11 296
1884 NI BB 21:00:00 TS 24.02 83.26 0 0 _________PP___ -1 24.13 83.05 TC 30 23.90 83.48 1 10 295
1884 NI BB 1884-08-05 00:00:00 TS 24.21 82.80 0 0 _________OP___ -1 24.30 82.60 TC 30 24.12 82.99 1 8 294
1884 NI BB 03:00:00 TS 24.33 82.50 0 0 _________PO___ -1 24.36 82.40 TC 30 24.30 82.60 1 5 294
1884 NI BB 06:00:00 TS 24.41 82.32 0 0 _________OP___ -1 24.40 82.30 TC 30 24.41 82.34 1 3 297
1884 NI BB 09:00:00 TS 24.49 82.16 0 0 _________PP___ -1 24.49 82.14 TC 30 24.49 82.18 1 3 303
1884 NI BB 12:00:00 TS 24.57 82.04 0 0 _________OP___ -1 24.60 82.00 TC 30 24.54 82.08 1 3 310
1884 NI BB 15:00:00 TS 24.65 81.95 0 0 _________PO___ -1 24.70 81.89 TC 30 24.60 82.00 1 3 315
1884 NI BB 18:00:00 TS 24.75 81.84 0 0 _________OP___ -1 24.80 81.80 TC 30 24.70 81.89 1 3 319
1884 NI BB 21:00:00 TS 24.86 81.74 0 0 _________PP___ -1 24.91 81.70 TC 30 24.81 81.78 1 3 319
1884 NI BB 1884-08-06 00:00:00 TS 24.96 81.65 0 0 _________OP___ -1 25.00 81.60 TC 30 24.91 81.69 1 2 315
1884 NI BB 03:00:00 TS 25.03 81.55 0 0 _________PO___ -1 25.06 81.50 TC 30 25.00 81.60 1 2 307
1884 NI BB 06:00:00 TS 25.08 81.45 0 0 _________OP___ -1 25.10 81.40 TC 30 25.06 81.51 1 2 301
1884 NI BB 09:00:00 TS 25.13 81.36 0 0 _________PP___ -1 25.15 81.31 TC 30 25.11 81.41 1 2 299
1884 NI BB 12:00:00 TS 25.18 81.26 0 0 _________OP___ -1 25.20 81.20 TC 30 25.16 81.31 1 2 294
1884 NI BB 15:00:00 TS 25.23 81.13 0 0 _________PO___ -1 25.25 81.06 TC 30 25.20 81.20 1 3 290
1884 NI BB 18:00:00 TS 25.27 80.99 0 0 _________OP___ -1 25.30 80.90 TC 30 25.23 81.08 1 3 288
1884 NI BB 21:00:00 TS 25.30 80.86 0 0 _________PP___ -1 25.33 80.77 TC 30 25.27 80.95 1 3 289
1884 NI BB 1884-08-07 00:00:00 TS 25.36 80.70 0 0 _________OP___ -1 25.40 80.60 TC 30 25.32 80.79 1 4 294
1884 NI BB 03:00:00 TS 25.47 80.46 0 0 _________PO___ -1 25.54 80.32 TC 30 25.40 80.60 1 5 298
1884 NI BB 06:00:00 TS 25.61 80.17 0 0 _________OP___ -1 25.70 80.00 TC 30 25.52 80.35 1 6 300
1884 NI BB 09:00:00 TS 25.76 79.90 0 0 _________PP___ -1 25.85 79.73 TC 30 25.66 80.07 1 6 302
1884 NI BB 12:00:00 TS 25.91 79.64 0 0 _________OP___ -1 26.00 79.50 TC 30 25.83 79.77 1 6 305
1884 NI BB 15:00:00 TS 26.07 79.40 0 0 _________PO___ -1 26.14 79.29 TC 30 26.00 79.50 1 5 308
1884 NI BB 18:00:00 TS 26.23 79.18 0 0 _________OP___ -1 26.30 79.10 TC 30 26.16 79.26 1 5 311
1884 NI BB 21:00:00 TS 26.41 78.96 0 0 _________PP___ -1 26.49 78.89 TC 30 26.33 79.04 1 5 316
1884 NI BB 1884-08-08 00:00:00 TS 26.60 78.78 0 0 _________OP___ -1 26.70 78.70 TC 30 26.51 78.85 1 5 323
1884 NI BB 03:00:00 TS 26.80 78.64 0 0 _________PO___ -1 26.89 78.58 TC 30 26.70 78.70 1 5 332
1884 NI BB 06:00:00 TS 27.00 78.54 0 0 _________OP___ -1 27.10 78.50 TC 30 26.90 78.58 1 5 341
1884 NI BB 09:00:00 TS 27.23 78.47 0 0 _________PP___ -1 27.34 78.44 TC 30 27.12 78.50 1 5 348
1884 NI BB 12:00:00 TS 27.48 78.42 0 0 _________OP___ -1 27.60 78.40 TC 30 27.35 78.44 1 5 350
1884 NI BB 15:00:00 TS 27.72 78.37 0 0 _________PO___ -1 27.84 78.34 TC 30 27.60 78.40 1 5 352
1884 NI BB 18:00:00 TS 27.96 78.34 0 0 _________OP___ -1 28.10 78.30 TC 30 27.86 78.37 1 5 356
1884 NI BB 21:00:00 TS 28.24 78.32 0 0 _________PP___ -1 28.39 78.29 TC 30 28.14 78.34 1 5 358
1884 NI BB 1884-08-09 00:00:00 TS 28.51 78.31 0 0 _________OP___ -1 28.70 78.30 TC 30 28.42 78.32 1 5 359
1884 NI BB 03:00:00 NR 28.70 78.30 0 __________O___ -1 TC 28.70 78.30 1 4 357